sensor_id;sensor_type;location;lat;lon;timestamp;P1;durP1;ratioP1;P2;durP2;ratioP2
30872;SDS011;17579;42.690;2.586;2023-07-13T00:00:22;3.95;;;2.30;;
30872;SDS011;17579;42.690;2.586;2023-07-13T00:03:11;2.35;;;2.00;;
30872;SDS011;17579;42.690;2.586;2023-07-13T00:06:04;2.45;;;2.17;;
30872;SDS011;17579;42.690;2.586;2023-07-13T00:08:30;3.53;;;2.22;;
30872;SDS011;17579;42.690;2.586;2023-07-13T00:11:05;3.33;;;2.58;;
30872;SDS011;17579;42.690;2.586;2023-07-13T00:13:34;2.80;;;2.10;;
30872;SDS011;17579;42.690;2.586;2023-07-13T00:16:16;3.15;;;2.03;;
30872;SDS011;17579;42.690;2.586;2023-07-13T00:21:33;3.50;;;2.17;;
30872;SDS011;17579;42.690;2.586;2023-07-13T00:24:05;2.63;;;2.40;;
30872;SDS011;17579;42.690;2.586;2023-07-13T00:26:40;2.58;;;2.08;;
30872;SDS011;17579;42.690;2.586;2023-07-13T00:29:05;3.30;;;2.55;;
30872;SDS011;17579;42.690;2.586;2023-07-13T00:31:37;2.33;;;2.08;;
30872;SDS011;17579;42.690;2.586;2023-07-13T00:34:09;4.53;;;2.63;;
30872;SDS011;17579;42.690;2.586;2023-07-13T00:36:34;2.80;;;2.08;;
30872;SDS011;17579;42.690;2.586;2023-07-13T00:39:20;3.35;;;2.50;;
30872;SDS011;17579;42.690;2.586;2023-07-13T00:41:49;3.63;;;2.60;;
30872;SDS011;17579;42.690;2.586;2023-07-13T00:44:16;3.28;;;2.67;;
30872;SDS011;17579;42.690;2.586;2023-07-13T00:46:49;3.28;;;2.38;;
30872;SDS011;17579;42.690;2.586;2023-07-13T00:49:24;3.45;;;2.88;;
30872;SDS011;17579;42.690;2.586;2023-07-13T00:52:10;4.78;;;2.50;;
30872;SDS011;17579;42.690;2.586;2023-07-13T00:54:40;2.90;;;2.47;;
30872;SDS011;17579;42.690;2.586;2023-07-13T00:57:15;4.20;;;2.58;;
30872;SDS011;17579;42.690;2.586;2023-07-13T00:59:47;3.10;;;2.60;;
30872;SDS011;17579;42.690;2.586;2023-07-13T01:02:16;3.42;;;2.72;;
30872;SDS011;17579;42.690;2.586;2023-07-13T01:04:49;3.90;;;2.67;;
30872;SDS011;17579;42.690;2.586;2023-07-13T01:07:27;3.20;;;2.90;;
30872;SDS011;17579;42.690;2.586;2023-07-13T01:12:56;3.45;;;2.40;;
30872;SDS011;17579;42.690;2.586;2023-07-13T01:17:54;5.07;;;2.50;;
30872;SDS011;17579;42.690;2.586;2023-07-13T01:20:20;2.35;;;2.15;;
30872;SDS011;17579;42.690;2.586;2023-07-13T01:22:50;3.95;;;2.72;;
30872;SDS011;17579;42.690;2.586;2023-07-13T01:25:16;3.58;;;2.90;;
30872;SDS011;17579;42.690;2.586;2023-07-13T01:27:43;2.65;;;2.35;;
30872;SDS011;17579;42.690;2.586;2023-07-13T01:30:12;3.70;;;2.78;;
30872;SDS011;17579;42.690;2.586;2023-07-13T01:32:41;2.95;;;2.65;;
30872;SDS011;17579;42.690;2.586;2023-07-13T01:35:20;2.53;;;2.33;;
30872;SDS011;17579;42.690;2.586;2023-07-13T01:38:03;3.13;;;2.65;;
30872;SDS011;17579;42.690;2.586;2023-07-13T01:40:30;2.92;;;2.45;;
30872;SDS011;17579;42.690;2.586;2023-07-13T01:43:18;4.72;;;2.53;;
30872;SDS011;17579;42.690;2.586;2023-07-13T01:46:04;3.17;;;2.88;;
30872;SDS011;17579;42.690;2.586;2023-07-13T01:48:32;2.53;;;2.30;;
30872;SDS011;17579;42.690;2.586;2023-07-13T01:51:00;3.05;;;2.35;;
30872;SDS011;17579;42.690;2.586;2023-07-13T01:53:28;3.00;;;2.67;;
30872;SDS011;17579;42.690;2.586;2023-07-13T01:56:07;4.78;;;2.80;;
30872;SDS011;17579;42.690;2.586;2023-07-13T01:58:38;2.97;;;2.50;;
30872;SDS011;17579;42.690;2.586;2023-07-13T02:01:03;3.58;;;2.58;;
30872;SDS011;17579;42.690;2.586;2023-07-13T02:03:34;4.70;;;2.67;;
30872;SDS011;17579;42.690;2.586;2023-07-13T02:08:48;3.20;;;2.90;;
30872;SDS011;17579;42.690;2.586;2023-07-13T02:11:16;3.20;;;2.58;;
30872;SDS011;17579;42.690;2.586;2023-07-13T02:13:45;2.97;;;2.30;;
30872;SDS011;17579;42.690;2.586;2023-07-13T02:16:41;3.83;;;2.40;;
30872;SDS011;17579;42.690;2.586;2023-07-13T02:19:10;5.28;;;2.70;;
30872;SDS011;17579;42.690;2.586;2023-07-13T02:21:36;2.72;;;2.38;;
30872;SDS011;17579;42.690;2.586;2023-07-13T02:24:06;2.70;;;2.42;;
30872;SDS011;17579;42.690;2.586;2023-07-13T02:26:45;3.63;;;2.15;;
30872;SDS011;17579;42.690;2.586;2023-07-13T02:29:17;4.18;;;2.75;;
30872;SDS011;17579;42.690;2.586;2023-07-13T02:31:45;2.75;;;2.40;;
30872;SDS011;17579;42.690;2.586;2023-07-13T02:34:14;3.33;;;2.33;;
30872;SDS011;17579;42.690;2.586;2023-07-13T02:36:51;3.90;;;2.60;;
30872;SDS011;17579;42.690;2.586;2023-07-13T02:39:19;5.30;;;2.47;;
30872;SDS011;17579;42.690;2.586;2023-07-13T02:41:53;2.65;;;2.17;;
30872;SDS011;17579;42.690;2.586;2023-07-13T02:44:19;2.78;;;2.28;;
30872;SDS011;17579;42.690;2.586;2023-07-13T02:46:48;2.70;;;2.40;;
30872;SDS011;17579;42.690;2.586;2023-07-13T02:49:13;3.97;;;2.38;;
30872;SDS011;17579;42.690;2.586;2023-07-13T02:51:41;5.03;;;2.40;;
30872;SDS011;17579;42.690;2.586;2023-07-13T02:54:09;4.18;;;2.65;;
30872;SDS011;17579;42.690;2.586;2023-07-13T02:56:41;3.90;;;2.42;;
30872;SDS011;17579;42.690;2.586;2023-07-13T02:59:08;3.08;;;2.42;;
30872;SDS011;17579;42.690;2.586;2023-07-13T03:01:40;2.20;;;2.00;;
30872;SDS011;17579;42.690;2.586;2023-07-13T03:04:11;2.90;;;2.33;;
30872;SDS011;17579;42.690;2.586;2023-07-13T03:06:40;2.33;;;2.13;;
30872;SDS011;17579;42.690;2.586;2023-07-13T03:09:05;5.20;;;2.15;;
30872;SDS011;17579;42.690;2.586;2023-07-13T03:11:31;2.40;;;2.20;;
30872;SDS011;17579;42.690;2.586;2023-07-13T03:13:59;2.13;;;1.95;;
30872;SDS011;17579;42.690;2.586;2023-07-13T03:16:28;2.25;;;2.03;;
30872;SDS011;17579;42.690;2.586;2023-07-13T03:19:14;2.95;;;1.92;;
30872;SDS011;17579;42.690;2.586;2023-07-13T03:21:40;2.55;;;2.28;;
30872;SDS011;17579;42.690;2.586;2023-07-13T03:24:06;2.17;;;1.98;;
30872;SDS011;17579;42.690;2.586;2023-07-13T03:26:32;2.05;;;1.83;;
30872;SDS011;17579;42.690;2.586;2023-07-13T03:29:07;2.28;;;2.05;;
30872;SDS011;17579;42.690;2.586;2023-07-13T03:31:57;3.55;;;2.15;;
30872;SDS011;17579;42.690;2.586;2023-07-13T03:34:35;2.55;;;2.30;;
30872;SDS011;17579;42.690;2.586;2023-07-13T03:37:03;2.30;;;2.10;;
30872;SDS011;17579;42.690;2.586;2023-07-13T03:39:33;3.67;;;2.15;;
30872;SDS011;17579;42.690;2.586;2023-07-13T03:41:59;2.30;;;2.10;;
30872;SDS011;17579;42.690;2.586;2023-07-13T03:44:27;4.00;;;1.73;;
30872;SDS011;17579;42.690;2.586;2023-07-13T03:49:46;2.40;;;2.20;;
30872;SDS011;17579;42.690;2.586;2023-07-13T03:52:12;2.15;;;1.95;;
30872;SDS011;17579;42.690;2.586;2023-07-13T03:54:45;2.53;;;1.80;;
30872;SDS011;17579;42.690;2.586;2023-07-13T03:57:12;2.40;;;2.20;;
30872;SDS011;17579;42.690;2.586;2023-07-13T03:59:40;2.13;;;2.03;;
30872;SDS011;17579;42.690;2.586;2023-07-13T04:02:46;2.70;;;1.83;;
30872;SDS011;17579;42.690;2.586;2023-07-13T04:05:14;2.15;;;1.90;;
30872;SDS011;17579;42.690;2.586;2023-07-13T04:07:40;2.05;;;1.80;;
30872;SDS011;17579;42.690;2.586;2023-07-13T04:10:06;2.95;;;2.03;;
30872;SDS011;17579;42.690;2.586;2023-07-13T04:12:34;2.85;;;2.22;;
30872;SDS011;17579;42.690;2.586;2023-07-13T04:15:00;2.85;;;2.30;;
30872;SDS011;17579;42.690;2.586;2023-07-13T04:17:28;2.60;;;1.80;;
30872;SDS011;17579;42.690;2.586;2023-07-13T04:20:04;2.45;;;2.25;;
30872;SDS011;17579;42.690;2.586;2023-07-13T04:22:33;2.25;;;2.05;;
30872;SDS011;17579;42.690;2.586;2023-07-13T04:25:20;2.25;;;1.88;;
30872;SDS011;17579;42.690;2.586;2023-07-13T04:27:46;2.35;;;2.00;;
30872;SDS011;17579;42.690;2.586;2023-07-13T04:30:15;2.60;;;1.80;;
30872;SDS011;17579;42.690;2.586;2023-07-13T04:32:41;3.33;;;2.08;;
30872;SDS011;17579;42.690;2.586;2023-07-13T04:35:09;2.13;;;2.03;;
30872;SDS011;17579;42.690;2.586;2023-07-13T04:37:45;2.47;;;2.22;;
30872;SDS011;17579;42.690;2.586;2023-07-13T04:40:16;2.15;;;1.95;;
30872;SDS011;17579;42.690;2.586;2023-07-13T04:42:44;2.38;;;2.17;;
30872;SDS011;17579;42.690;2.586;2023-07-13T04:45:19;2.55;;;2.15;;
30872;SDS011;17579;42.690;2.586;2023-07-13T04:47:49;4.70;;;2.30;;
30872;SDS011;17579;42.690;2.586;2023-07-13T04:50:39;4.18;;;2.10;;
30872;SDS011;17579;42.690;2.586;2023-07-13T04:58:50;2.60;;;2.00;;
30872;SDS011;17579;42.690;2.586;2023-07-13T05:01:16;2.20;;;1.98;;
30872;SDS011;17579;42.690;2.586;2023-07-13T05:04:25;2.47;;;2.00;;
30872;SDS011;17579;42.690;2.586;2023-07-13T05:07:01;2.30;;;2.10;;
30872;SDS011;17579;42.690;2.586;2023-07-13T05:09:30;2.72;;;2.05;;
30872;SDS011;17579;42.690;2.586;2023-07-13T05:12:03;2.47;;;2.28;;
30872;SDS011;17579;42.690;2.586;2023-07-13T05:14:33;2.40;;;2.20;;
30872;SDS011;17579;42.690;2.586;2023-07-13T05:16:59;2.08;;;1.92;;
30872;SDS011;17579;42.690;2.586;2023-07-13T05:19:31;2.55;;;2.13;;
30872;SDS011;17579;42.690;2.586;2023-07-13T05:21:59;2.30;;;2.17;;
30872;SDS011;17579;42.690;2.586;2023-07-13T05:24:34;2.03;;;1.85;;
30872;SDS011;17579;42.690;2.586;2023-07-13T05:27:05;2.20;;;2.00;;
30872;SDS011;17579;42.690;2.586;2023-07-13T05:29:30;2.08;;;1.95;;
30872;SDS011;17579;42.690;2.586;2023-07-13T05:31:56;2.97;;;1.75;;
30872;SDS011;17579;42.690;2.586;2023-07-13T05:34:22;1.52;;;1.42;;
30872;SDS011;17579;42.690;2.586;2023-07-13T05:36:51;1.40;;;1.30;;
30872;SDS011;17579;42.690;2.586;2023-07-13T05:39:18;1.65;;;1.23;;
30872;SDS011;17579;42.690;2.586;2023-07-13T05:41:49;1.40;;;1.30;;
30872;SDS011;17579;42.690;2.586;2023-07-13T05:44:35;2.05;;;1.30;;
30872;SDS011;17579;42.690;2.586;2023-07-13T05:47:07;1.10;;;1.00;;
30872;SDS011;17579;42.690;2.586;2023-07-13T05:49:45;1.60;;;1.50;;
30872;SDS011;17579;42.690;2.586;2023-07-13T05:52:13;1.30;;;1.15;;
30872;SDS011;17579;42.690;2.586;2023-07-13T05:55:10;0.98;;;0.98;;
30872;SDS011;17579;42.690;2.586;2023-07-13T05:57:39;0.98;;;0.95;;
30872;SDS011;17579;42.690;2.586;2023-07-13T06:00:07;1.40;;;1.30;;
30872;SDS011;17579;42.690;2.586;2023-07-13T06:02:42;1.20;;;1.10;;
30872;SDS011;17579;42.690;2.586;2023-07-13T06:05:10;1.58;;;1.48;;
30872;SDS011;17579;42.690;2.586;2023-07-13T06:07:38;1.52;;;1.20;;
30872;SDS011;17579;42.690;2.586;2023-07-13T06:10:04;1.70;;;1.27;;
30872;SDS011;17579;42.690;2.586;2023-07-13T06:12:43;1.92;;;1.05;;
30872;SDS011;17579;42.690;2.586;2023-07-13T06:15:09;1.02;;;1.00;;
30872;SDS011;17579;42.690;2.586;2023-07-13T06:17:35;1.45;;;1.20;;
30872;SDS011;17579;42.690;2.586;2023-07-13T06:23:20;1.30;;;1.20;;
30872;SDS011;17579;42.690;2.586;2023-07-13T06:25:46;2.40;;;1.52;;
30872;SDS011;17579;42.690;2.586;2023-07-13T06:28:15;1.73;;;1.40;;
30872;SDS011;17579;42.690;2.586;2023-07-13T06:31:05;1.40;;;1.30;;
30872;SDS011;17579;42.690;2.586;2023-07-13T06:33:33;2.38;;;1.40;;
30872;SDS011;17579;42.690;2.586;2023-07-13T06:35:59;1.80;;;1.70;;
30872;SDS011;17579;42.690;2.586;2023-07-13T06:38:46;1.92;;;1.73;;
30872;SDS011;17579;42.690;2.586;2023-07-13T06:41:12;2.67;;;1.60;;
30872;SDS011;17579;42.690;2.586;2023-07-13T06:43:45;2.65;;;2.00;;
30872;SDS011;17579;42.690;2.586;2023-07-13T06:46:14;2.25;;;1.90;;
30872;SDS011;17579;42.690;2.586;2023-07-13T06:48:40;1.63;;;1.52;;
30872;SDS011;17579;42.690;2.586;2023-07-13T06:51:08;1.35;;;1.35;;
30872;SDS011;17579;42.690;2.586;2023-07-13T06:53:38;1.40;;;1.30;;
30872;SDS011;17579;42.690;2.586;2023-07-13T06:56:10;1.40;;;1.30;;
30872;SDS011;17579;42.690;2.586;2023-07-13T06:58:38;1.27;;;1.25;;
30872;SDS011;17579;42.690;2.586;2023-07-13T07:01:04;1.50;;;1.40;;
30872;SDS011;17579;42.690;2.586;2023-07-13T07:03:33;1.27;;;1.17;;
30872;SDS011;17579;42.690;2.586;2023-07-13T07:08:37;2.58;;;1.23;;
30872;SDS011;17579;42.690;2.586;2023-07-13T07:11:05;1.23;;;1.10;;
30872;SDS011;17579;42.690;2.586;2023-07-13T07:13:34;1.00;;;1.00;;
30872;SDS011;17579;42.690;2.586;2023-07-13T07:16:03;0.93;;;0.93;;
30872;SDS011;17579;42.690;2.586;2023-07-13T07:18:35;1.20;;;0.90;;
30872;SDS011;17579;42.690;2.586;2023-07-13T07:21:03;1.10;;;1.10;;
30872;SDS011;17579;42.690;2.586;2023-07-13T07:23:59;1.05;;;0.93;;
30872;SDS011;17579;42.690;2.586;2023-07-13T07:26:28;1.10;;;1.10;;
30872;SDS011;17579;42.690;2.586;2023-07-13T07:28:56;1.05;;;1.05;;
30872;SDS011;17579;42.690;2.586;2023-07-13T07:31:31;1.15;;;1.15;;
30872;SDS011;17579;42.690;2.586;2023-07-13T07:34:00;0.90;;;0.90;;
30872;SDS011;17579;42.690;2.586;2023-07-13T07:36:25;1.20;;;1.10;;
30872;SDS011;17579;42.690;2.586;2023-07-13T07:38:53;0.98;;;0.98;;
30872;SDS011;17579;42.690;2.586;2023-07-13T07:41:24;0.80;;;0.80;;
30872;SDS011;17579;42.690;2.586;2023-07-13T07:46:41;0.80;;;0.75;;
30872;SDS011;17579;42.690;2.586;2023-07-13T07:49:07;1.40;;;0.93;;
30872;SDS011;17579;42.690;2.586;2023-07-13T07:51:53;0.70;;;0.70;;
30872;SDS011;17579;42.690;2.586;2023-07-13T07:54:19;0.75;;;0.70;;
30872;SDS011;17579;42.690;2.586;2023-07-13T07:56:47;0.70;;;0.70;;
30872;SDS011;17579;42.690;2.586;2023-07-13T07:59:20;0.80;;;0.80;;
30872;SDS011;17579;42.690;2.586;2023-07-13T08:01:59;0.90;;;0.90;;
30872;SDS011;17579;42.690;2.586;2023-07-13T08:04:27;0.82;;;0.82;;
30872;SDS011;17579;42.690;2.586;2023-07-13T08:06:58;0.82;;;0.70;;
30872;SDS011;17579;42.690;2.586;2023-07-13T08:09:30;0.80;;;0.80;;
30872;SDS011;17579;42.690;2.586;2023-07-13T08:12:01;0.90;;;0.90;;
30872;SDS011;17579;42.690;2.586;2023-07-13T08:14:35;1.02;;;1.02;;
30872;SDS011;17579;42.690;2.586;2023-07-13T08:17:04;1.20;;;1.10;;
30872;SDS011;17579;42.690;2.586;2023-07-13T08:19:36;1.17;;;1.17;;
30872;SDS011;17579;42.690;2.586;2023-07-13T08:22:04;2.20;;;1.25;;
30872;SDS011;17579;42.690;2.586;2023-07-13T08:24:30;1.35;;;1.25;;
30872;SDS011;17579;42.690;2.586;2023-07-13T08:26:55;1.10;;;1.10;;
30872;SDS011;17579;42.690;2.586;2023-07-13T08:29:24;1.00;;;1.00;;
30872;SDS011;17579;42.690;2.586;2023-07-13T08:31:50;2.42;;;1.15;;
30872;SDS011;17579;42.690;2.586;2023-07-13T08:34:15;1.50;;;1.35;;
30872;SDS011;17579;42.690;2.586;2023-07-13T08:36:41;1.67;;;1.30;;
30872;SDS011;17579;42.690;2.586;2023-07-13T08:39:10;1.42;;;1.33;;
30872;SDS011;17579;42.690;2.586;2023-07-13T08:41:38;1.90;;;1.58;;
30872;SDS011;17579;42.690;2.586;2023-07-13T08:44:16;1.75;;;1.48;;
30872;SDS011;17579;42.690;2.586;2023-07-13T08:46:54;1.80;;;1.40;;
30872;SDS011;17579;42.690;2.586;2023-07-13T08:49:26;1.67;;;1.58;;
30872;SDS011;17579;42.690;2.586;2023-07-13T08:51:56;1.98;;;1.88;;
30872;SDS011;17579;42.690;2.586;2023-07-13T08:54:34;1.98;;;1.55;;
30872;SDS011;17579;42.690;2.586;2023-07-13T08:57:24;1.75;;;1.65;;
30872;SDS011;17579;42.690;2.586;2023-07-13T09:00:09;1.98;;;1.70;;
30872;SDS011;17579;42.690;2.586;2023-07-13T09:05:13;2.17;;;1.38;;
30872;SDS011;17579;42.690;2.586;2023-07-13T09:10:17;1.65;;;1.55;;
30872;SDS011;17579;42.690;2.586;2023-07-13T09:17:57;2.08;;;1.40;;
30872;SDS011;17579;42.690;2.586;2023-07-13T09:23:16;2.17;;;1.30;;
30872;SDS011;17579;42.690;2.586;2023-07-13T09:25:53;1.63;;;1.20;;
30872;SDS011;17579;42.690;2.586;2023-07-13T09:28:49;1.98;;;1.00;;
30872;SDS011;17579;42.690;2.586;2023-07-13T09:31:23;2.15;;;1.25;;
30872;SDS011;17579;42.690;2.586;2023-07-13T09:33:54;1.92;;;1.20;;
30872;SDS011;17579;42.690;2.586;2023-07-13T09:36:22;1.58;;;1.23;;
30872;SDS011;17579;42.690;2.586;2023-07-13T09:38:57;2.28;;;1.58;;
30872;SDS011;17579;42.690;2.586;2023-07-13T09:41:33;1.75;;;1.63;;
30872;SDS011;17579;42.690;2.586;2023-07-13T09:44:37;3.40;;;1.23;;
30872;SDS011;17579;42.690;2.586;2023-07-13T09:47:27;2.08;;;1.73;;
30872;SDS011;17579;42.690;2.586;2023-07-13T09:49:58;2.40;;;1.40;;
30872;SDS011;17579;42.690;2.586;2023-07-13T09:52:38;1.27;;;1.17;;
30872;SDS011;17579;42.690;2.586;2023-07-13T09:55:22;2.13;;;1.50;;
30872;SDS011;17579;42.690;2.586;2023-07-13T09:57:51;1.70;;;1.50;;
30872;SDS011;17579;42.690;2.586;2023-07-13T10:00:22;3.35;;;1.77;;
30872;SDS011;17579;42.690;2.586;2023-07-13T10:05:26;1.95;;;1.35;;
30872;SDS011;17579;42.690;2.586;2023-07-13T10:07:51;2.35;;;1.50;;
30872;SDS011;17579;42.690;2.586;2023-07-13T10:10:22;1.50;;;1.40;;
30872;SDS011;17579;42.690;2.586;2023-07-13T10:12:56;1.52;;;1.42;;
30872;SDS011;17579;42.690;2.586;2023-07-13T10:15:30;1.63;;;1.52;;
30872;SDS011;17579;42.690;2.586;2023-07-13T10:17:59;1.50;;;1.40;;
30872;SDS011;17579;42.690;2.586;2023-07-13T10:20:34;1.60;;;1.50;;
30872;SDS011;17579;42.690;2.586;2023-07-13T10:23:05;1.67;;;1.58;;
30872;SDS011;17579;42.690;2.586;2023-07-13T10:25:42;2.72;;;1.77;;
30872;SDS011;17579;42.690;2.586;2023-07-13T10:28:25;3.63;;;1.70;;
30872;SDS011;17579;42.690;2.586;2023-07-13T10:30:54;1.52;;;1.42;;
30872;SDS011;17579;42.690;2.586;2023-07-13T10:33:23;2.22;;;1.60;;
30872;SDS011;17579;42.690;2.586;2023-07-13T10:35:50;1.60;;;1.50;;
30872;SDS011;17579;42.690;2.586;2023-07-13T10:38:35;5.25;;;1.95;;
30872;SDS011;17579;42.690;2.586;2023-07-13T10:41:26;2.08;;;1.88;;
30872;SDS011;17579;42.690;2.586;2023-07-13T10:44:00;2.50;;;1.40;;
30872;SDS011;17579;42.690;2.586;2023-07-13T10:46:35;1.70;;;1.60;;
30872;SDS011;17579;42.690;2.586;2023-07-13T10:49:01;1.65;;;1.30;;
30872;SDS011;17579;42.690;2.586;2023-07-13T10:51:32;1.40;;;1.30;;
30872;SDS011;17579;42.690;2.586;2023-07-13T10:56:34;1.20;;;1.10;;
30872;SDS011;17579;42.690;2.586;2023-07-13T10:59:19;1.92;;;1.40;;
30872;SDS011;17579;42.690;2.586;2023-07-13T11:02:05;1.50;;;1.20;;
30872;SDS011;17579;42.690;2.586;2023-07-13T11:04:40;1.50;;;1.25;;
30872;SDS011;17579;42.690;2.586;2023-07-13T11:15:10;1.35;;;1.17;;
30872;SDS011;17579;42.690;2.586;2023-07-13T11:18:02;1.40;;;1.30;;
30872;SDS011;17579;42.690;2.586;2023-07-13T11:20:50;1.40;;;1.13;;
30872;SDS011;17579;42.690;2.586;2023-07-13T11:23:26;1.67;;;1.40;;
30872;SDS011;17579;42.690;2.586;2023-07-13T11:25:56;2.55;;;1.50;;
30872;SDS011;17579;42.690;2.586;2023-07-13T11:28:23;3.15;;;1.65;;
30872;SDS011;17579;42.690;2.586;2023-07-13T11:33:44;1.20;;;1.15;;
30872;SDS011;17579;42.690;2.586;2023-07-13T11:36:15;2.80;;;1.40;;
30872;SDS011;17579;42.690;2.586;2023-07-13T11:38:43;1.20;;;1.10;;
30872;SDS011;17579;42.690;2.586;2023-07-13T11:41:21;1.30;;;1.20;;
30872;SDS011;17579;42.690;2.586;2023-07-13T11:44:13;1.70;;;1.17;;
30872;SDS011;17579;42.690;2.586;2023-07-13T11:49:30;1.23;;;1.10;;
30872;SDS011;17579;42.690;2.586;2023-07-13T11:52:16;1.15;;;1.15;;
30872;SDS011;17579;42.690;2.586;2023-07-13T11:57:20;1.00;;;1.00;;
30872;SDS011;17579;42.690;2.586;2023-07-13T11:59:49;1.40;;;1.30;;
30872;SDS011;17579;42.690;2.586;2023-07-13T12:05:07;2.45;;;1.70;;
30872;SDS011;17579;42.690;2.586;2023-07-13T12:07:42;1.83;;;1.20;;
30872;SDS011;17579;42.690;2.586;2023-07-13T12:12:40;1.30;;;1.20;;
30872;SDS011;17579;42.690;2.586;2023-07-13T12:15:29;1.23;;;1.23;;
30872;SDS011;17579;42.690;2.586;2023-07-13T12:18:12;2.00;;;1.40;;
30872;SDS011;17579;42.690;2.586;2023-07-13T12:21:00;1.33;;;1.17;;
30872;SDS011;17579;42.690;2.586;2023-07-13T12:25:59;1.75;;;1.40;;
30872;SDS011;17579;42.690;2.586;2023-07-13T12:34:00;3.17;;;1.58;;
30872;SDS011;17579;42.690;2.586;2023-07-13T12:36:41;1.52;;;1.42;;
30872;SDS011;17579;42.690;2.586;2023-07-13T12:41:52;1.50;;;1.40;;
30872;SDS011;17579;42.690;2.586;2023-07-13T12:44:25;1.50;;;1.40;;
30872;SDS011;17579;42.690;2.586;2023-07-13T12:46:58;1.63;;;1.52;;
30872;SDS011;17579;42.690;2.586;2023-07-13T12:49:53;1.77;;;1.55;;
30872;SDS011;17579;42.690;2.586;2023-07-13T12:54:52;2.60;;;1.50;;
30872;SDS011;17579;42.690;2.586;2023-07-13T13:00:20;1.30;;;1.20;;
30872;SDS011;17579;42.690;2.586;2023-07-13T13:02:50;2.45;;;1.40;;
30872;SDS011;17579;42.690;2.586;2023-07-13T13:05:26;1.52;;;1.40;;
30872;SDS011;17579;42.690;2.586;2023-07-13T13:08:00;1.50;;;1.40;;
30872;SDS011;17579;42.690;2.586;2023-07-13T13:10:34;1.45;;;1.35;;
30872;SDS011;17579;42.690;2.586;2023-07-13T13:13:11;1.75;;;1.63;;
30872;SDS011;17579;42.690;2.586;2023-07-13T13:15:37;4.80;;;1.67;;
30872;SDS011;17579;42.690;2.586;2023-07-13T13:18:26;1.98;;;1.30;;
30872;SDS011;17579;42.690;2.586;2023-07-13T13:21:17;1.45;;;1.35;;
30872;SDS011;17579;42.690;2.586;2023-07-13T13:23:46;3.80;;;1.60;;
30872;SDS011;17579;42.690;2.586;2023-07-13T13:26:19;6.60;;;1.52;;
30872;SDS011;17579;42.690;2.586;2023-07-13T13:28:49;1.40;;;1.30;;
30872;SDS011;17579;42.690;2.586;2023-07-13T13:31:26;1.70;;;1.35;;
30872;SDS011;17579;42.690;2.586;2023-07-13T13:33:53;2.28;;;1.50;;
30872;SDS011;17579;42.690;2.586;2023-07-13T13:36:27;1.60;;;1.50;;
30872;SDS011;17579;42.690;2.586;2023-07-13T13:38:58;2.53;;;1.50;;
30872;SDS011;17579;42.690;2.586;2023-07-13T13:41:26;1.92;;;1.65;;
30872;SDS011;17579;42.690;2.586;2023-07-13T13:43:54;3.75;;;1.40;;
30872;SDS011;17579;42.690;2.586;2023-07-13T13:46:31;1.60;;;1.42;;
30872;SDS011;17579;42.690;2.586;2023-07-13T13:48:59;3.08;;;1.50;;
30872;SDS011;17579;42.690;2.586;2023-07-13T13:51:24;2.05;;;1.30;;
30872;SDS011;17579;42.690;2.586;2023-07-13T13:53:51;6.70;;;1.65;;
30872;SDS011;17579;42.690;2.586;2023-07-13T13:56:22;2.92;;;1.40;;
30872;SDS011;17579;42.690;2.586;2023-07-13T13:58:54;2.80;;;1.42;;
30872;SDS011;17579;42.690;2.586;2023-07-13T14:01:26;10.48;;;1.92;;
30872;SDS011;17579;42.690;2.586;2023-07-13T14:03:54;3.22;;;1.50;;
30872;SDS011;17579;42.690;2.586;2023-07-13T14:06:40;1.98;;;1.40;;
30872;SDS011;17579;42.690;2.586;2023-07-13T14:11:38;1.80;;;1.50;;
30872;SDS011;17579;42.690;2.586;2023-07-13T14:14:08;1.65;;;1.30;;
30872;SDS011;17579;42.690;2.586;2023-07-13T14:16:46;1.40;;;1.30;;
30872;SDS011;17579;42.690;2.586;2023-07-13T14:19:32;2.13;;;1.20;;
30872;SDS011;17579;42.690;2.586;2023-07-13T14:22:03;2.53;;;1.40;;
30872;SDS011;17579;42.690;2.586;2023-07-13T14:24:54;4.03;;;1.25;;
30872;SDS011;17579;42.690;2.586;2023-07-13T14:27:25;2.92;;;1.33;;
30872;SDS011;17579;42.690;2.586;2023-07-13T14:30:00;3.25;;;1.50;;
30872;SDS011;17579;42.690;2.586;2023-07-13T14:32:42;1.85;;;1.35;;
30872;SDS011;17579;42.690;2.586;2023-07-13T14:35:10;1.73;;;1.38;;
30872;SDS011;17579;42.690;2.586;2023-07-13T14:38:05;5.72;;;1.30;;
30872;SDS011;17579;42.690;2.586;2023-07-13T14:40:34;4.15;;;1.35;;
30872;SDS011;17579;42.690;2.586;2023-07-13T14:43:02;3.42;;;1.55;;
30872;SDS011;17579;42.690;2.586;2023-07-13T14:45:50;5.20;;;1.45;;
30872;SDS011;17579;42.690;2.586;2023-07-13T14:48:22;2.42;;;1.20;;
30872;SDS011;17579;42.690;2.586;2023-07-13T14:51:09;3.30;;;1.23;;
30872;SDS011;17579;42.690;2.586;2023-07-13T14:54:01;1.35;;;1.25;;
30872;SDS011;17579;42.690;2.586;2023-07-13T14:56:34;1.35;;;1.23;;
30872;SDS011;17579;42.690;2.586;2023-07-13T14:59:20;4.53;;;1.63;;
30872;SDS011;17579;42.690;2.586;2023-07-13T15:02:15;2.85;;;1.30;;
30872;SDS011;17579;42.690;2.586;2023-07-13T15:05:11;5.80;;;1.40;;
30872;SDS011;17579;42.690;2.586;2023-07-13T15:07:50;2.15;;;1.20;;
30872;SDS011;17579;42.690;2.586;2023-07-13T15:10:30;1.30;;;1.20;;
30872;SDS011;17579;42.690;2.586;2023-07-13T15:13:21;2.00;;;1.20;;
30872;SDS011;17579;42.690;2.586;2023-07-13T15:16:17;1.00;;;0.93;;
30872;SDS011;17579;42.690;2.586;2023-07-13T15:19:04;2.53;;;1.35;;
30872;SDS011;17579;42.690;2.586;2023-07-13T15:21:37;2.05;;;1.30;;
30872;SDS011;17579;42.690;2.586;2023-07-13T15:24:07;1.70;;;1.20;;
30872;SDS011;17579;42.690;2.586;2023-07-13T15:26:41;3.97;;;1.48;;
30872;SDS011;17579;42.690;2.586;2023-07-13T15:29:11;2.75;;;1.33;;
30872;SDS011;17579;42.690;2.586;2023-07-13T15:31:40;2.72;;;1.40;;
30872;SDS011;17579;42.690;2.586;2023-07-13T15:39:34;3.33;;;1.70;;
30872;SDS011;17579;42.690;2.586;2023-07-13T15:42:05;2.00;;;1.42;;
30872;SDS011;17579;42.690;2.586;2023-07-13T15:44:36;6.18;;;1.40;;
30872;SDS011;17579;42.690;2.586;2023-07-13T15:47:05;3.08;;;1.20;;
30872;SDS011;17579;42.690;2.586;2023-07-13T15:49:35;2.25;;;1.20;;
30872;SDS011;17579;42.690;2.586;2023-07-13T15:52:15;3.33;;;1.15;;
30872;SDS011;17579;42.690;2.586;2023-07-13T15:54:43;4.25;;;1.33;;
30872;SDS011;17579;42.690;2.586;2023-07-13T15:57:09;2.97;;;1.73;;
30872;SDS011;17579;42.690;2.586;2023-07-13T15:59:39;1.92;;;1.42;;
30872;SDS011;17579;42.690;2.586;2023-07-13T16:04:36;2.33;;;1.20;;
30872;SDS011;17579;42.690;2.586;2023-07-13T16:07:01;1.92;;;1.20;;
30872;SDS011;17579;42.690;2.586;2023-07-13T16:09:35;1.58;;;1.48;;
30872;SDS011;17579;42.690;2.586;2023-07-13T16:14:41;1.92;;;1.30;;
30872;SDS011;17579;42.690;2.586;2023-07-13T16:17:11;4.18;;;1.80;;
30872;SDS011;17579;42.690;2.586;2023-07-13T16:19:40;8.90;;;1.40;;
30872;SDS011;17579;42.690;2.586;2023-07-13T16:22:14;4.32;;;1.50;;
30872;SDS011;17579;42.690;2.586;2023-07-13T16:24:46;3.38;;;1.35;;
30872;SDS011;17579;42.690;2.586;2023-07-13T16:27:20;2.10;;;1.40;;
30872;SDS011;17579;42.690;2.586;2023-07-13T16:29:45;3.28;;;1.20;;
30872;SDS011;17579;42.690;2.586;2023-07-13T16:32:16;1.40;;;1.30;;
30872;SDS011;17579;42.690;2.586;2023-07-13T16:34:58;1.67;;;1.30;;
30872;SDS011;17579;42.690;2.586;2023-07-13T16:37:44;2.00;;;1.40;;
30872;SDS011;17579;42.690;2.586;2023-07-13T16:40:21;2.15;;;1.40;;
30872;SDS011;17579;42.690;2.586;2023-07-13T16:42:49;1.90;;;1.38;;
30872;SDS011;17579;42.690;2.586;2023-07-13T16:45:19;2.92;;;1.63;;
30872;SDS011;17579;42.690;2.586;2023-07-13T16:47:49;1.77;;;1.33;;
30872;SDS011;17579;42.690;2.586;2023-07-13T16:50:19;3.22;;;1.35;;
30872;SDS011;17579;42.690;2.586;2023-07-13T16:53:10;1.65;;;1.30;;
30872;SDS011;17579;42.690;2.586;2023-07-13T16:55:49;1.73;;;1.20;;
30872;SDS011;17579;42.690;2.586;2023-07-13T16:58:35;1.88;;;1.45;;
30872;SDS011;17579;42.690;2.586;2023-07-13T17:01:43;1.35;;;1.25;;